createdAt,value
2023-02-08T00:01:25.932Z,21.00
2023-02-08T00:03:55.083Z,30.50
2023-02-08T00:06:23.491Z,28.00
2023-02-08T00:08:51.977Z,31.90
2023-02-08T00:11:20.366Z,28.40
2023-02-08T00:13:49.149Z,30.80
2023-02-08T00:16:18.896Z,27.80
2023-02-08T00:18:47.870Z,25.60
2023-02-08T00:21:17.482Z,26.20
2023-02-08T00:26:15.527Z,31.40
2023-02-08T00:28:44.562Z,28.40
2023-02-08T00:31:13.128Z,27.90
2023-02-08T00:33:42.963Z,28.40
2023-02-08T00:36:12.062Z,27.70
2023-02-08T00:38:45.972Z,27.50
2023-02-08T00:41:14.564Z,26.90
2023-02-08T00:43:45.909Z,29.30
2023-02-08T00:46:15.468Z,29.60
2023-02-08T00:48:48.000Z,29.40
2023-02-08T00:51:16.380Z,30.70
2023-02-08T00:53:46.088Z,26.30
2023-02-08T00:56:16.726Z,33.00
2023-02-08T00:58:47.156Z,29.00
2023-02-08T01:01:15.825Z,28.10
2023-02-08T01:03:45.149Z,30.50
2023-02-08T01:06:17.128Z,26.80
2023-02-08T01:08:47.033Z,27.90
2023-02-08T01:11:27.913Z,29.30
2023-02-08T01:13:57.741Z,27.90
2023-02-08T01:16:30.568Z,27.90
2023-02-08T01:19:02.107Z,30.80
2023-02-08T01:21:32.881Z,28.20
2023-02-08T01:24:01.390Z,26.20
2023-02-08T01:26:32.741Z,25.40
2023-02-08T01:29:01.435Z,21.80
2023-02-08T01:31:32.592Z,28.80
2023-02-08T01:34:01.790Z,26.80
2023-02-08T01:36:30.734Z,27.40
2023-02-08T01:38:59.361Z,29.30
2023-02-08T01:41:32.609Z,30.10
2023-02-08T01:44:13.723Z,29.70
2023-02-08T01:46:45.024Z,27.10
2023-02-08T01:51:45.677Z,28.30
2023-02-08T01:54:14.332Z,31.10
2023-02-08T01:56:45.895Z,29.00
2023-02-08T01:59:20.719Z,32.80
2023-02-08T02:01:49.717Z,27.30
2023-02-08T02:04:18.208Z,20.40
2023-02-08T02:06:48.956Z,26.90
2023-02-08T02:09:32.987Z,24.20
2023-02-08T02:12:03.008Z,25.70
2023-02-08T02:14:31.518Z,31.90
2023-02-08T02:17:01.003Z,29.60
2023-02-08T02:19:42.901Z,27.30
2023-02-08T02:22:43.530Z,26.40
2023-02-08T02:25:24.107Z,29.10
2023-02-08T02:28:30.686Z,30.30
2023-02-08T02:31:12.586Z,30.50
2023-02-08T02:33:43.938Z,27.80
2023-02-08T02:36:18.004Z,25.40
2023-02-08T02:39:14.081Z,27.70
2023-02-08T02:42:08.167Z,22.40
2023-02-08T02:44:42.796Z,28.70
2023-02-08T02:47:40.177Z,21.50
2023-02-08T02:50:20.827Z,24.10
2023-02-08T02:52:56.379Z,28.90
2023-02-08T02:55:25.372Z,26.40
2023-02-08T02:57:54.423Z,29.10
2023-02-08T03:00:24.698Z,28.20
2023-02-08T03:02:53.490Z,26.10
2023-02-08T03:05:22.189Z,27.10
2023-02-08T03:08:12.576Z,23.60
2023-02-08T03:11:17.006Z,25.40
2023-02-08T03:14:02.075Z,23.80
2023-02-08T03:16:42.952Z,25.50
2023-02-08T03:19:17.166Z,23.10
2023-02-08T03:21:51.492Z,26.20
2023-02-08T03:24:49.774Z,24.20
2023-02-08T03:27:40.887Z,27.70
2023-02-08T03:30:34.706Z,26.40
2023-02-08T03:33:07.445Z,25.60
2023-02-08T03:35:48.629Z,28.50
2023-02-08T03:38:32.370Z,26.70
2023-02-08T03:41:01.474Z,27.10
2023-02-08T03:43:33.030Z,29.90
2023-02-08T03:46:22.482Z,29.70
2023-02-08T03:48:54.883Z,25.10
2023-02-08T03:51:23.361Z,24.70
2023-02-08T03:53:51.747Z,25.70
2023-02-08T03:56:44.902Z,28.50
2023-02-08T03:59:16.665Z,28.70
2023-02-08T04:01:52.528Z,27.80
2023-02-08T04:04:21.003Z,27.90
2023-02-08T04:06:49.631Z,20.00
2023-02-08T04:09:18.394Z,25.80
2023-02-08T04:11:47.201Z,26.70
2023-02-08T04:14:15.869Z,30.50
2023-02-08T04:16:44.243Z,33.90
2023-02-08T04:19:12.828Z,28.10
2023-02-08T04:21:41.520Z,31.80
2023-02-08T04:24:10.002Z,33.20
2023-02-08T04:26:38.802Z,29.50
2023-02-08T04:29:07.283Z,25.90
2023-02-08T04:31:35.893Z,27.30
2023-02-08T04:34:04.559Z,29.80
2023-02-08T04:36:33.349Z,26.40
2023-02-08T04:39:02.349Z,27.00
2023-02-08T04:41:30.932Z,30.20
2023-02-08T04:43:59.316Z,28.50
2023-02-08T04:46:27.577Z,28.70
2023-02-08T04:48:57.983Z,30.20
2023-02-08T04:51:27.229Z,29.30
2023-02-08T04:53:55.712Z,28.80
2023-02-08T04:56:24.301Z,30.10
2023-02-08T04:58:52.783Z,29.40
2023-02-08T05:01:21.183Z,32.90
2023-02-08T05:03:49.546Z,30.40
2023-02-08T05:06:17.940Z,26.90
2023-02-08T05:08:46.714Z,30.50
2023-02-08T05:11:21.242Z,31.50
2023-02-08T05:13:50.042Z,29.90
2023-02-08T05:16:18.878Z,27.10
2023-02-08T05:18:48.333Z,30.10
2023-02-08T05:21:16.918Z,28.70
2023-02-08T05:23:46.852Z,24.80
2023-02-08T05:26:15.728Z,26.10
2023-02-08T05:28:44.316Z,31.20
2023-02-08T05:31:14.481Z,28.30
2023-02-08T05:33:42.922Z,28.00
2023-02-08T05:36:11.565Z,30.10
2023-02-08T05:38:39.993Z,33.00
2023-02-08T05:41:08.993Z,30.70
2023-02-08T05:43:37.678Z,22.70
2023-02-08T05:46:06.060Z,27.40
2023-02-08T05:48:34.613Z,27.60
2023-02-08T05:51:03.540Z,28.60
2023-02-08T05:53:31.923Z,27.40
2023-02-08T05:56:00.302Z,28.00
2023-02-08T05:58:29.197Z,31.60
2023-02-08T06:00:57.688Z,21.90
2023-02-08T06:03:26.169Z,32.20
2023-02-08T06:05:54.753Z,30.30
2023-02-08T06:08:23.138Z,30.80
2023-02-08T06:10:51.834Z,28.30
2023-02-08T06:13:20.203Z,25.90
2023-02-08T06:15:49.301Z,34.70
2023-02-08T06:18:17.588Z,34.40
2023-02-08T06:20:46.270Z,29.80
2023-02-08T06:23:14.863Z,32.90
2023-02-08T06:25:45.695Z,26.70
2023-02-08T06:28:14.250Z,27.10
2023-02-08T06:30:43.078Z,28.30
2023-02-08T06:33:13.411Z,31.30
2023-02-08T06:35:47.828Z,31.20
2023-02-08T06:38:16.322Z,30.00
2023-02-08T06:40:46.948Z,31.40
2023-02-08T06:43:15.849Z,30.10
2023-02-08T06:45:47.522Z,22.30
2023-02-08T06:48:16.216Z,29.50
2023-02-08T06:50:44.698Z,29.80
2023-02-08T06:53:13.470Z,29.40
2023-02-08T06:55:41.852Z,30.60
2023-02-08T06:58:11.457Z,30.50
2023-02-08T07:00:40.061Z,34.20
2023-02-08T07:03:09.347Z,31.80
2023-02-08T07:05:39.984Z,34.40
2023-02-08T07:08:08.773Z,31.80
2023-02-08T07:10:38.911Z,30.50
2023-02-08T07:13:07.587Z,28.30
2023-02-08T07:15:36.381Z,30.50
2023-02-08T07:18:04.762Z,30.20
2023-02-08T07:20:33.141Z,27.00
2023-02-08T07:23:01.732Z,30.80
2023-02-08T07:25:30.316Z,32.90
2023-02-08T07:27:59.275Z,28.70
2023-02-08T07:30:27.829Z,28.20
2023-02-08T07:32:56.388Z,29.40
2023-02-08T07:35:24.764Z,32.00
2023-02-08T07:37:53.147Z,32.20
2023-02-08T07:40:21.632Z,31.10
2023-02-08T07:42:50.022Z,32.20
2023-02-08T07:45:25.977Z,32.60
2023-02-08T07:47:54.368Z,27.90
2023-02-08T07:50:23.046Z,27.30
2023-02-08T07:52:51.534Z,26.30
2023-02-08T07:55:20.837Z,33.70
2023-02-08T07:57:50.053Z,33.10
2023-02-08T08:00:19.451Z,25.70
2023-02-08T08:02:50.798Z,32.60
2023-02-08T08:05:19.180Z,31.80
2023-02-08T08:07:48.067Z,33.00
2023-02-08T08:10:17.166Z,30.20
2023-02-08T08:12:45.651Z,31.50
2023-02-08T08:15:14.649Z,33.10
2023-02-08T08:17:43.772Z,34.80
2023-02-08T08:20:12.234Z,33.50
2023-02-08T08:22:40.712Z,32.90
2023-02-08T08:25:09.195Z,31.80
2023-02-08T08:27:38.395Z,33.70
2023-02-08T08:30:12.229Z,34.20
2023-02-08T08:32:40.801Z,36.20
2023-02-08T08:35:09.476Z,23.50
2023-02-08T08:37:37.987Z,27.70
2023-02-08T08:40:07.418Z,25.60
2023-02-08T08:42:36.802Z,21.00
2023-02-08T08:45:05.943Z,29.30
2023-02-08T08:47:34.865Z,27.90
2023-02-08T08:50:03.355Z,26.40
2023-02-08T08:52:32.132Z,20.10
2023-02-08T08:55:01.950Z,21.60
2023-02-08T08:57:30.841Z,23.40
2023-02-08T08:59:59.121Z,21.50
2023-02-08T09:02:27.611Z,20.40
2023-02-08T09:05:00.179Z,19.00
2023-02-08T09:07:28.668Z,17.70
2023-02-08T09:09:57.245Z,12.60
2023-02-08T09:12:25.802Z,12.90
2023-02-08T09:14:54.221Z,17.20
2023-02-08T09:17:22.713Z,18.80
2023-02-08T09:19:51.286Z,15.70
2023-02-08T09:22:20.578Z,11.70
2023-02-08T09:24:49.063Z,16.50
2023-02-08T09:27:19.389Z,13.50
2023-02-08T09:29:47.875Z,20.80
2023-02-08T09:32:16.299Z,15.20
2023-02-08T09:34:44.629Z,17.90
2023-02-08T09:37:13.216Z,18.00
2023-02-08T09:39:41.599Z,21.10
2023-02-08T09:42:13.362Z,21.50
2023-02-08T09:44:47.782Z,17.60
2023-02-08T09:47:36.328Z,22.20
2023-02-08T09:50:13.522Z,21.90
2023-02-08T09:52:44.260Z,21.30
2023-02-08T09:55:36.262Z,22.70
2023-02-08T09:58:42.154Z,21.70
2023-02-08T10:01:20.268Z,21.70
2023-02-08T10:03:48.960Z,24.50
2023-02-08T10:06:18.917Z,17.70
2023-02-08T10:08:51.755Z,22.20
2023-02-08T10:11:28.943Z,19.40
2023-02-08T10:14:08.073Z,21.90
2023-02-08T10:20:09.855Z,26.70
2023-02-08T10:22:57.179Z,22.10
2023-02-08T10:25:31.676Z,21.80
2023-02-08T10:28:25.311Z,22.80
2023-02-08T10:31:04.916Z,23.70
2023-02-08T10:36:19.086Z,25.70
2023-02-08T10:38:49.923Z,22.50
2023-02-08T10:41:24.290Z,20.60
2023-02-08T10:44:02.653Z,24.90
2023-02-08T10:46:36.152Z,20.60
2023-02-08T10:49:23.475Z,21.50
2023-02-08T10:51:52.801Z,22.80
2023-02-08T10:54:21.260Z,23.10
2023-02-08T10:57:02.745Z,22.20
2023-02-08T10:59:46.379Z,20.50
2023-02-08T11:02:26.674Z,22.30
2023-02-08T11:05:19.489Z,21.30
2023-02-08T11:08:17.263Z,22.20
2023-02-08T11:11:00.913Z,25.10
2023-02-08T11:13:51.608Z,21.00
2023-02-08T11:16:24.368Z,19.60
2023-02-08T11:18:56.369Z,17.40
2023-02-08T11:21:26.508Z,20.90
2023-02-08T11:23:55.261Z,20.40
2023-02-08T11:26:33.063Z,21.20
2023-02-08T11:29:25.308Z,21.70
2023-02-08T11:32:02.702Z,18.40
2023-02-08T11:34:33.021Z,18.10
2023-02-08T11:37:03.389Z,16.80
2023-02-08T11:39:51.892Z,14.30
2023-02-08T11:42:30.116Z,15.30
2023-02-08T11:44:59.935Z,15.90
2023-02-08T11:47:29.844Z,18.00
2023-02-08T11:52:35.619Z,13.70
2023-02-08T11:55:14.133Z,13.20
2023-02-08T11:58:00.749Z,15.00
2023-02-08T12:00:36.920Z,15.70
2023-02-08T12:03:18.574Z,16.20
2023-02-08T12:06:16.781Z,17.80
2023-02-08T12:08:58.370Z,13.50
2023-02-08T12:11:43.339Z,17.60
2023-02-08T12:14:24.724Z,15.00
2023-02-08T12:17:10.409Z,16.30
2023-02-08T12:19:41.752Z,13.50
2023-02-08T12:22:24.172Z,15.70
2023-02-08T12:25:09.857Z,13.30
2023-02-08T12:27:43.387Z,15.70
2023-02-08T12:30:26.683Z,14.70
2023-02-08T12:33:24.044Z,16.10
2023-02-08T12:36:05.603Z,16.10
2023-02-08T12:39:19.447Z,17.40
2023-02-08T12:42:25.729Z,13.50
2023-02-08T12:45:22.798Z,14.50
2023-02-08T12:48:20.584Z,15.60
2023-02-08T12:51:00.422Z,15.60
2023-02-08T12:53:33.957Z,13.90
2023-02-08T12:56:05.477Z,13.80
2023-02-08T12:58:40.922Z,16.10
2023-02-08T13:01:12.261Z,14.40
2023-02-08T13:04:13.730Z,14.00
2023-02-08T13:06:47.684Z,13.70
2023-02-08T13:09:35.751Z,13.10
2023-02-08T13:12:46.669Z,12.10
2023-02-08T13:15:30.937Z,15.70
2023-02-08T13:18:19.473Z,12.50
2023-02-08T13:21:02.299Z,14.30
2023-02-08T13:23:51.650Z,14.90
2023-02-08T13:26:31.926Z,15.80
2023-02-08T13:29:02.618Z,15.80
2023-02-08T13:31:45.600Z,15.70
2023-02-08T13:34:30.346Z,18.20
2023-02-08T13:37:02.098Z,15.80
2023-02-08T13:39:37.671Z,16.80
2023-02-08T13:42:07.514Z,18.30
2023-02-08T13:44:38.058Z,15.90
2023-02-08T13:49:50.437Z,18.10
2023-02-08T13:52:46.897Z,17.70
2023-02-08T13:55:31.766Z,18.50
2023-02-08T13:58:02.124Z,23.40
2023-02-08T14:03:03.799Z,22.70
2023-02-08T14:05:47.489Z,20.70
2023-02-08T14:08:26.014Z,23.80
2023-02-08T14:11:35.452Z,22.40
2023-02-08T14:14:05.467Z,20.30
2023-02-08T14:16:36.123Z,21.90
2023-02-08T14:19:06.463Z,21.40
2023-02-08T14:21:40.236Z,19.90
2023-02-08T14:24:27.665Z,22.30
2023-02-08T14:27:21.793Z,23.10
2023-02-08T14:30:05.999Z,21.50
2023-02-08T14:32:37.555Z,24.00
2023-02-08T14:35:13.411Z,24.10
2023-02-08T14:37:43.647Z,23.00
2023-02-08T14:40:16.874Z,26.30
2023-02-08T14:43:01.503Z,24.30
2023-02-08T14:45:33.753Z,24.00
2023-02-08T14:48:28.667Z,21.90
2023-02-08T14:51:00.326Z,18.80
2023-02-08T14:53:50.111Z,21.60
2023-02-08T14:56:47.368Z,19.30
2023-02-08T14:59:17.158Z,20.80
2023-02-08T15:02:02.782Z,22.00
2023-02-08T15:04:31.196Z,21.30
2023-02-08T15:07:17.981Z,24.20
2023-02-08T15:09:46.855Z,22.10
2023-02-08T15:12:26.095Z,19.40
2023-02-08T15:14:58.319Z,19.80
2023-02-08T15:17:35.353Z,16.90
2023-02-08T15:20:08.533Z,19.60
2023-02-08T15:22:38.361Z,20.20
2023-02-08T15:25:22.626Z,23.60
2023-02-08T15:27:53.301Z,23.10
2023-02-08T15:30:35.908Z,24.50
2023-02-08T15:33:09.976Z,23.90
2023-02-08T15:35:38.355Z,20.10
2023-02-08T15:38:20.975Z,22.20
2023-02-08T15:41:07.577Z,21.80
2023-02-08T15:43:36.935Z,21.40
2023-02-08T15:46:24.010Z,23.80
2023-02-08T15:48:52.381Z,22.70
2023-02-08T15:51:23.326Z,22.30
2023-02-08T15:53:52.932Z,23.20
2023-02-08T15:56:36.450Z,23.30
2023-02-08T15:59:06.593Z,22.80
2023-02-08T16:01:35.143Z,22.50
2023-02-08T16:04:12.717Z,22.20
2023-02-08T16:06:48.528Z,26.40
2023-02-08T16:09:19.978Z,23.40
2023-02-08T16:11:50.204Z,22.10
2023-02-08T16:14:23.718Z,21.00
2023-02-08T16:16:55.984Z,19.90
2023-02-08T16:19:32.058Z,23.50
2023-02-08T16:22:22.238Z,21.70
2023-02-08T16:24:51.138Z,22.80
2023-02-08T16:27:27.808Z,20.60
2023-02-08T16:29:56.613Z,23.90
2023-02-08T16:32:32.982Z,23.60
2023-02-08T16:35:11.069Z,26.80
2023-02-08T16:37:39.963Z,23.40
2023-02-08T16:40:49.202Z,22.30
2023-02-08T16:43:26.319Z,23.20
2023-02-08T16:46:10.207Z,22.60
2023-02-08T16:48:43.638Z,23.60
2023-02-08T16:51:17.233Z,24.10
2023-02-08T16:53:47.981Z,26.20
2023-02-08T16:56:16.555Z,26.80
2023-02-08T16:58:45.356Z,27.30
2023-02-08T17:01:14.444Z,23.50
2023-02-08T17:03:43.050Z,23.50
2023-02-08T17:06:38.954Z,26.20
2023-02-08T17:09:09.628Z,23.40
2023-02-08T17:11:38.174Z,19.40
2023-02-08T17:14:07.011Z,26.80
2023-02-08T17:16:37.215Z,24.80
2023-02-08T17:19:05.777Z,22.50
2023-02-08T17:21:34.665Z,27.70
2023-02-08T17:24:03.450Z,32.10
2023-02-08T17:26:37.636Z,26.90
2023-02-08T17:29:06.049Z,27.10
2023-02-08T17:31:36.223Z,27.70
2023-02-08T17:34:04.775Z,27.00
2023-02-08T17:36:35.169Z,33.30
2023-02-08T17:39:05.621Z,25.50
2023-02-08T17:41:35.006Z,29.00
2023-02-08T17:44:04.449Z,33.20
2023-02-08T17:46:35.015Z,28.80
2023-02-08T17:49:04.866Z,22.50
2023-02-08T17:56:36.865Z,38.80
2023-02-08T17:59:05.820Z,33.90
2023-02-08T18:01:35.323Z,37.70
2023-02-08T18:04:04.037Z,29.10
2023-02-08T18:06:34.361Z,27.30
2023-02-08T18:09:02.907Z,29.20
2023-02-08T18:11:31.638Z,33.80
2023-02-08T18:14:00.638Z,31.50
2023-02-08T18:16:31.043Z,36.60
2023-02-08T18:19:01.513Z,35.60
2023-02-08T18:21:33.270Z,34.10
2023-02-08T18:24:05.512Z,27.50
2023-02-08T18:26:34.839Z,39.70
2023-02-08T18:29:03.631Z,38.80
2023-02-08T18:31:32.320Z,40.30
2023-02-08T18:34:01.924Z,43.60
2023-02-08T18:36:30.483Z,42.40
2023-02-08T18:38:58.961Z,46.80
2023-02-08T18:41:28.544Z,43.90
2023-02-08T18:46:27.026Z,46.30
2023-02-08T18:48:56.084Z,43.90
2023-02-08T18:51:24.946Z,41.00
2023-02-08T18:53:54.443Z,42.90
2023-02-08T18:56:24.282Z,45.10
2023-02-08T18:58:54.175Z,42.00
2023-02-08T19:01:24.151Z,35.60
2023-02-08T19:03:53.529Z,39.30
2023-02-08T19:06:24.934Z,28.50
2023-02-08T19:08:55.726Z,41.50
2023-02-08T19:11:26.436Z,44.50
2023-02-08T19:13:58.839Z,44.20
2023-02-08T19:16:27.946Z,70.10
2023-02-08T19:18:56.703Z,60.90
2023-02-08T19:21:26.084Z,72.60
2023-02-08T19:23:54.775Z,84.70
2023-02-08T19:26:25.142Z,90.80
2023-02-08T19:28:57.849Z,92.30
2023-02-08T19:31:27.408Z,72.80
2023-02-08T19:33:58.937Z,80.70
2023-02-08T19:36:29.793Z,79.90
2023-02-08T19:38:59.713Z,80.90
2023-02-08T19:41:33.544Z,76.80
2023-02-08T19:44:07.102Z,74.40
2023-02-08T19:46:38.913Z,57.50
2023-02-08T19:49:07.773Z,50.70
2023-02-08T19:51:37.568Z,57.90
2023-02-08T19:54:08.817Z,46.00
2023-02-08T19:56:38.538Z,52.40
2023-02-08T19:59:08.456Z,45.20
2023-02-08T20:01:37.342Z,56.40
2023-02-08T20:04:06.241Z,53.50
2023-02-08T20:06:37.093Z,56.90
2023-02-08T20:09:07.092Z,55.90
2023-02-08T20:11:45.121Z,60.80
2023-02-08T20:14:23.627Z,58.10
2023-02-08T20:16:52.234Z,52.80
2023-02-08T20:19:20.676Z,60.20
2023-02-08T20:21:49.363Z,61.90
2023-02-08T20:24:18.473Z,62.70
2023-02-08T20:26:47.348Z,62.90
2023-02-08T20:29:16.339Z,67.30
2023-02-08T20:31:49.498Z,74.10
2023-02-08T20:34:19.122Z,67.70
2023-02-08T20:39:37.038Z,65.20
2023-02-08T20:42:06.530Z,61.10
2023-02-08T20:44:34.881Z,64.80
2023-02-08T20:47:03.676Z,79.90
2023-02-08T20:49:32.671Z,81.30
2023-02-08T20:52:01.679Z,86.40
2023-02-08T20:54:31.194Z,92.90
2023-02-08T20:56:59.668Z,111.10
2023-02-08T20:59:28.038Z,86.50
2023-02-08T21:01:56.633Z,92.00
2023-02-08T21:04:26.641Z,91.00
2023-02-08T21:06:55.148Z,87.90
2023-02-08T21:09:23.808Z,87.60
2023-02-08T21:11:52.597Z,93.50
2023-02-08T21:14:23.552Z,87.90
2023-02-08T21:16:59.030Z,92.40
2023-02-08T21:19:28.805Z,88.20
2023-02-08T21:21:59.188Z,82.50
2023-02-08T21:24:27.908Z,79.00
2023-02-08T21:26:56.700Z,83.90
2023-02-08T21:29:25.500Z,63.60
2023-02-08T21:31:56.523Z,62.80
2023-02-08T21:34:25.321Z,74.80
2023-02-08T21:36:53.803Z,85.90
2023-02-08T21:39:23.619Z,87.30
2023-02-08T21:41:52.572Z,95.10
2023-02-08T21:46:50.090Z,90.90
2023-02-08T21:49:37.209Z,88.60
2023-02-08T21:52:24.451Z,92.90
2023-02-08T21:54:53.885Z,91.70
2023-02-08T21:57:23.559Z,88.80
2023-02-08T21:59:53.598Z,93.20
2023-02-08T22:04:53.315Z,91.40
2023-02-08T22:07:22.492Z,83.10
2023-02-08T22:09:51.080Z,80.60
2023-02-08T22:12:21.042Z,85.70
2023-02-08T22:17:17.814Z,78.80
2023-02-08T22:19:46.252Z,82.70
2023-02-08T22:22:14.619Z,86.80
2023-02-08T22:24:43.019Z,88.10
2023-02-08T22:27:12.098Z,79.90
2023-02-08T22:29:40.484Z,86.60
2023-02-08T22:32:10.235Z,88.60
2023-02-08T22:37:39.003Z,83.50
2023-02-08T22:40:08.105Z,67.40
2023-02-08T22:42:39.045Z,75.40
2023-02-08T22:45:08.042Z,73.00
2023-02-08T22:47:37.035Z,71.60
2023-02-08T22:50:06.941Z,76.00
2023-02-08T22:52:35.850Z,76.00
2023-02-08T22:55:04.532Z,83.50
2023-02-08T23:00:09.527Z,79.30
2023-02-08T23:02:38.828Z,77.30
2023-02-08T23:05:07.382Z,71.90
2023-02-08T23:07:36.374Z,68.30
2023-02-08T23:10:06.220Z,71.70
2023-02-08T23:12:34.870Z,69.20
2023-02-08T23:15:03.247Z,72.90
2023-02-08T23:17:32.672Z,74.90
2023-02-08T23:20:01.440Z,50.80
2023-02-08T23:22:30.334Z,71.80
2023-02-08T23:24:58.822Z,66.40
2023-02-08T23:27:27.400Z,61.60
2023-02-08T23:29:56.092Z,59.80
2023-02-08T23:32:24.571Z,67.50
2023-02-08T23:34:53.263Z,66.10
2023-02-08T23:37:21.741Z,60.40
2023-02-08T23:39:50.226Z,65.00
2023-02-08T23:42:27.619Z,59.90
2023-02-08T23:44:57.382Z,58.50
2023-02-08T23:47:26.453Z,58.40
2023-02-08T23:49:54.812Z,58.90
2023-02-08T23:52:23.215Z,60.70
2023-02-08T23:54:51.780Z,58.10
2023-02-08T23:57:20.264Z,59.30
2023-02-08T23:59:48.851Z,57.30
